Time;durP1;ratioP1;P1;durP2;ratioP2;P2;SDS_P1;SDS_P2;PMS_P1;PMS_P2;Temp;Humidity;BMP_temperature;BMP_pressure;BME280_temperature;BME280_humidity;BME280_pressure;Samples;Min_cycle;Max_cycle;Signal;HPM_P1;HPM_P2
2022/04/01 00:01:43;;;;;;;;;;;;;;;;;;4661609;28;31140;-68
2022/04/01 00:04:10;;;;;;;;;;;;;;;;;;4668124;28;26328;-68
2022/04/01 00:06:39;;;;;;;;;;;;;;;;;;4667215;28;27086;-68
2022/04/01 00:09:07;;;;;;;;;;;;;;;;;;4675823;28;28055;-69
2022/04/01 00:11:48;;;;;;;;;;;;;;;;;;4702675;28;31061;-68
2022/04/01 00:14:16;;;;;;;;;;;;;;;;;;4702255;28;31077;-68
2022/04/01 00:16:57;;;;;;;;;;;;;;;;;;4675272;28;27058;-68
2022/04/01 00:19:25;;;;;;;;;;;;;;;;;;4667214;28;29110;-68
2022/04/01 00:21:53;;;;;;;;;;;;;;;;;;4667471;28;26087;-69
2022/04/01 00:24:21;;;;;;;;;;;;;;;;;;4667457;28;28089;-69
2022/04/01 00:26:51;;;;;;;;;;;;;;;;;;4667744;28;28072;-68
2022/04/01 00:29:22;;;;;;;;;;;;;;;;;;4667401;28;27082;-70
2022/04/01 00:31:49;;;;;;;;;;;;;;;;;;4669124;28;28079;-69
2022/04/01 00:34:17;;;;;;;;;;;;;;;;;;4667676;28;32167;-68
2022/04/01 00:36:45;;;;;;;;;;;;;;;;;;4665401;28;26074;-70
2022/04/01 00:39:29;;;;;;;;;;;;;;;;;;4654515;28;29049;-68
2022/04/01 00:41:59;;;;;;;;;;;;;;;;;;4664653;28;26072;-68
2022/04/01 00:44:31;;;;;;;;;;;;;;;;;;4663313;28;33084;-68
2022/04/01 00:46:59;;;;;;;;;;;;;;;;;;4665107;28;33075;-69
2022/04/01 00:49:29;;;;;;;;;;;;;;;;;;4665629;28;32157;-68
2022/04/01 00:51:58;;;;;;;;;;;;;;;;;;4666541;28;25139;-68
2022/04/01 00:54:40;;;;;;;;;;;;;;;;;;4661168;28;28053;-68
2022/04/01 00:57:08;;;;;;;;;;;;;;;;;;4661642;28;33077;-68
2022/04/01 00:59:36;;;;;;;;;;;;;;;;;;4663470;28;25069;-68
2022/04/01 01:02:14;;;;;;;;;;;;;;;;;;4663885;28;30120;-69
2022/04/01 01:04:44;;;;;;;;;;;;;;;;;;4662911;28;28087;-68
2022/04/01 01:07:12;;;;;;;;;;;;;;;;;;4666322;28;29112;-68
2022/04/01 01:09:39;;;;;;;;;;;;;;;;;;4665888;28;26135;-69
2022/04/01 01:12:09;;;;;;;;;;;;;;;;;;4666327;28;27104;-69
2022/04/01 01:14:36;;;;;;;;;;;;;;;;;;4666742;28;27078;-68
2022/04/01 01:17:11;;;;;;;;;;;;;;;;;;4667822;28;29118;-68
2022/04/01 01:19:39;;;;;;;;;;;;;;;;;;4666772;28;25070;-68
2022/04/01 01:22:07;;;;;;;;;;;;;;;;;;4669052;28;25073;-68
2022/04/01 01:24:35;;;;;;;;;;;;;;;;;;4667705;28;28094;-68
2022/04/01 01:27:20;;;;;;;;;;;;;;;;;;4664717;28;32066;-68
2022/04/01 01:29:47;;;;;;;;;;;;;;;;;;4665234;28;32064;-69
2022/04/01 01:32:19;;;;;;;;;;;;;;;;;;4665074;28;30074;-69
2022/04/01 01:34:48;;;;;;;;;;;;;;;;;;4664245;28;28123;-69
2022/04/01 01:37:17;;;;;;;;;;;;;;;;;;4663357;28;28064;-69
2022/04/01 01:39:48;;;;;;;;;;;;;;;;;;4652482;28;25080;-69
2022/04/01 01:42:15;;;;;;;;;;;;;;;;;;4646438;28;26067;-69
2022/04/01 01:44:43;;;;;;;;;;;;;;;;;;4642393;28;32972;-69
2022/04/01 01:47:10;;;;;;;;;;;;;;;;;;4643769;28;30068;-68
2022/04/01 01:49:38;;;;;;;;;;;;;;;;;;4645896;28;26060;-68
2022/04/01 01:54:52;;;;;;;;;;;;;;;;;;4645925;28;26106;-68
2022/04/01 01:57:21;;;;;;;;;;;;;;;;;;4647204;28;31084;-69
2022/04/01 01:59:49;;;;;;;;;;;;;;;;;;4642891;28;25069;-68
2022/04/01 02:02:39;;;;;;;;;;;;;;;;;;4647498;28;26510;-68
2022/04/01 02:05:11;;;;;;;;;;;;;;;;;;4646733;28;33029;-69
2022/04/01 02:07:39;;;;;;;;;;;;;;;;;;4647711;28;27127;-70
2022/04/01 02:10:07;;;;;;;;;;;;;;;;;;4645628;28;31130;-68
2022/04/01 02:12:35;;;;;;;;;;;;;;;;;;4646536;28;25084;-69
2022/04/01 02:15:03;;;;;;;;;;;;;;;;;;4646091;28;26066;-70
2022/04/01 02:17:31;;;;;;;;;;;;;;;;;;4646805;28;28063;-68
2022/04/01 02:20:01;;;;;;;;;;;;;;;;;;4646051;28;29129;-69
2022/04/01 02:22:32;;;;;;;;;;;;;;;;;;4644385;28;31127;-68
2022/04/01 02:25:00;;;;;;;;;;;;;;;;;;4642582;28;31114;-69
2022/04/01 02:27:28;;;;;;;;;;;;;;;;;;4637606;28;32111;-69
2022/04/01 02:29:58;;;;;;;;;;;;;;;;;;4642790;28;33065;-68
2022/04/01 02:32:59;;;;;;;;;;;;;;;;;;4638430;28;25063;-70
2022/04/01 02:35:45;;;;;;;;;;;;;;;;;;4644224;28;29119;-69
2022/04/01 02:38:13;;;;;;;;;;;;;;;;;;4642727;28;28058;-69
2022/04/01 02:40:45;;;;;;;;;;;;;;;;;;4641945;28;27116;-69
2022/04/01 02:43:14;;;;;;;;;;;;;;;;;;4641350;28;25110;-68
2022/04/01 02:45:44;;;;;;;;;;;;;;;;;;4643325;28;26063;-68
2022/04/01 02:48:14;;;;;;;;;;;;;;;;;;4643090;28;28078;-68
2022/04/01 02:51:05;;;;;;;;;;;;;;;;;;4638802;28;25073;-69
2022/04/01 02:53:33;;;;;;;;;;;;;;;;;;4642099;28;28073;-68
2022/04/01 02:56:02;;;;;;;;;;;;;;;;;;4642097;28;26071;-68
2022/04/01 02:58:37;;;;;;;;;;;;;;;;;;4643614;28;29092;-68
2022/04/01 03:01:05;;;;;;;;;;;;;;;;;;4641024;28;27091;-68
2022/04/01 03:03:38;;;;;;;;;;;;;;;;;;4642445;28;32991;-68
2022/04/01 03:06:09;;;;;;;;;;;;;;;;;;4640031;28;27079;-69
2022/04/01 03:08:50;;;;;;;;;;;;;;;;;;4640434;28;27073;-69
2022/04/01 03:11:19;;;;;;;;;;;;;;;;;;4622335;28;29055;-68
2022/04/01 03:14:03;;;;;;;;;;;;;;;;;;4638917;28;32068;-69
2022/04/01 03:16:49;;;;;;;;;;;;;;;;;;4641241;28;26075;-69
2022/04/01 03:19:20;;;;;;;;;;;;;;;;;;4640452;28;32076;-68
2022/04/01 03:21:49;;;;;;;;;;;;;;;;;;4642139;28;25071;-68
2022/04/01 03:24:17;;;;;;;;;;;;;;;;;;4635237;28;31088;-70
2022/04/01 03:26:44;;;;;;;;;;;;;;;;;;4641615;28;31017;-69
2022/04/01 03:29:12;;;;;;;;;;;;;;;;;;4642581;28;30070;-70
2022/04/01 03:31:40;;;;;;;;;;;;;;;;;;4640561;28;25078;-69
2022/04/01 03:34:11;;;;;;;;;;;;;;;;;;4640104;28;27091;-69
2022/04/01 03:36:41;;;;;;;;;;;;;;;;;;4641997;28;26131;-69
2022/04/01 03:39:09;;;;;;;;;;;;;;;;;;4643561;28;29071;-69
2022/04/01 03:42:00;;;;;;;;;;;;;;;;;;4645312;28;25093;-69
2022/04/01 03:44:27;;;;;;;;;;;;;;;;;;4641435;28;30108;-68
2022/04/01 03:47:30;;;;;;;;;;;;;;;;;;4645313;28;27068;-68
2022/04/01 03:49:57;;;;;;;;;;;;;;;;;;4644621;28;27146;-69
2022/04/01 03:52:27;;;;;;;;;;;;;;;;;;4645414;28;28062;-68
2022/04/01 03:54:56;;;;;;;;;;;;;;;;;;4646224;28;30140;-69
2022/04/01 03:58:02;;;;;;;;;;;;;;;;;;4643523;28;33103;-69
2022/04/01 04:00:53;;;;;;;;;;;;;;;;;;4640993;28;29057;-68
2022/04/01 04:03:26;;;;;;;;;;;;;;;;;;4640337;28;26076;-68
2022/04/01 04:05:54;;;;;;;;;;;;;;;;;;4639739;28;25058;-69
2022/04/01 04:08:22;;;;;;;;;;;;;;;;;;4640009;28;27076;-69
2022/04/01 04:10:50;;;;;;;;;;;;;;;;;;4636389;28;28059;-70
2022/04/01 04:13:57;;;;;;;;;;;;;;;;;;4617863;28;28061;-68
2022/04/01 04:16:25;;;;;;;;;;;;;;;;;;4601989;28;25083;-68
2022/04/01 04:18:52;;;;;;;;;;;;;;;;;;4601525;28;32106;-68
2022/04/01 04:21:29;;;;;;;;;;;;;;;;;;4601636;28;26106;-69
2022/04/01 04:24:11;;;;;;;;;;;;;;;;;;4615084;28;34143;-69
2022/04/01 04:26:41;;;;;;;;;;;;;;;;;;4601554;28;33078;-68
2022/04/01 04:29:08;;;;;;;;;;;;;;;;;;4615568;28;29093;-69
2022/04/01 04:31:47;;;;;;;;;;;;;;;;;;4600721;28;25093;-68
2022/04/01 04:34:17;;;;;;;;;;;;;;;;;;4616238;28;27084;-69
2022/04/01 04:36:45;;;;;;;;;;;;;;;;;;4601726;28;25080;-69
2022/04/01 04:39:15;;;;;;;;;;;;;;;;;;4603722;28;26076;-70
2022/04/01 04:41:49;;;;;;;;;;;;;;;;;;4618735;28;25078;-68
2022/04/01 04:44:31;;;;;;;;;;;;;;;;;;4625465;28;29071;-68
2022/04/01 04:46:59;;;;;;;;;;;;;;;;;;4605111;28;26099;-69
2022/04/01 04:49:30;;;;;;;;;;;;;;;;;;4649454;28;28064;-69
2022/04/01 04:52:02;;;;;;;;;;;;;;;;;;4653981;28;27072;-70
2022/04/01 04:54:50;;;;;;;;;;;;;;;;;;4656147;28;37083;-70
2022/04/01 04:57:18;;;;;;;;;;;;;;;;;;4662628;28;37158;-71
2022/04/01 04:59:46;;;;;;;;;;;;;;;;;;4657303;28;29065;-69
2022/04/01 05:02:16;;;;;;;;;;;;;;;;;;4662826;28;29073;-71
2022/04/01 05:04:51;;;;;;;;;;;;;;;;;;4662318;28;33089;-69
2022/04/01 05:07:18;;;;;;;;;;;;;;;;;;4660499;28;27957;-71
2022/04/01 05:10:24;;;;;;;;;;;;;;;;;;4664306;28;26082;-71
2022/04/01 05:12:52;;;;;;;;;;;;;;;;;;4657194;28;30132;-71
2022/04/01 05:15:54;;;;;;;;;;;;;;;;;;4643155;28;29127;-69
2022/04/01 05:18:21;;;;;;;;;;;;;;;;;;4660032;28;31093;-69
2022/04/01 05:20:52;;;;;;;;;;;;;;;;;;4661179;28;25077;-71
2022/04/01 05:23:20;;;;;;;;;;;;;;;;;;4664956;28;27130;-72
2022/04/01 05:25:49;;;;;;;;;;;;;;;;;;4653457;28;33073;-66
2022/04/01 05:28:59;;;;;;;;;;;;;;;;;;4626393;28;31132;-69
2022/04/01 05:31:29;;;;;;;;;;;;;;;;;;4613138;28;34104;-69
2022/04/01 05:33:57;;;;;;;;;;;;;;;;;;4616287;28;30146;-70
2022/04/01 05:36:25;;;;;;;;;;;;;;;;;;4617803;28;29070;-69
2022/04/01 05:38:54;;;;;;;;;;;;;;;;;;4614497;28;28017;-70
2022/04/01 05:41:21;;;;;;;;;;;;;;;;;;4634671;28;26091;-70
2022/04/01 05:43:50;;;;;;;;;;;;;;;;;;4621085;28;32133;-69
2022/04/01 05:46:25;;;;;;;;;;;;;;;;;;4620575;28;27158;-70
2022/04/01 05:48:55;;;;;;;;;;;;;;;;;;4619665;28;33074;-68
2022/04/01 05:51:31;;;;;;;;;;;;;;;;;;4610449;28;32096;-69
2022/04/01 05:53:58;;;;;;;;;;;;;;;;;;4624153;28;26067;-69
2022/04/01 05:56:26;;;;;;;;;;;;;;;;;;4612803;28;31089;-69
2022/04/01 05:58:54;;;;;;;;;;;;;;;;;;4609802;28;33062;-70
2022/04/01 06:01:22;;;;;;;;;;;;;;;;;;4630070;28;26079;-71
2022/04/01 06:03:53;;;;;;;;;;;;;;;;;;4626026;28;34120;-70
2022/04/01 06:06:20;;;;;;;;;;;;;;;;;;4642045;28;28152;-71
2022/04/01 06:08:48;;;;;;;;;;;;;;;;;;4639974;28;38149;-71
2022/04/01 06:11:36;;;;;;;;;;;;;;;;;;4628846;28;27087;-70
2022/04/01 06:14:28;;;;;;;;;;;;;;;;;;4620073;28;26102;-69
2022/04/01 06:17:18;;;;;;;;;;;;;;;;;;4618004;28;27062;-70
2022/04/01 06:19:48;;;;;;;;;;;;;;;;;;4617725;28;25067;-69
2022/04/01 06:22:16;;;;;;;;;;;;;;;;;;4613176;28;30067;-69
2022/04/01 06:24:47;;;;;;;;;;;;;;;;;;4615831;28;27143;-70
2022/04/01 06:27:15;;;;;;;;;;;;;;;;;;4612128;28;28105;-69
2022/04/01 06:29:42;;;;;;;;;;;;;;;;;;4612834;28;26083;-69
2022/04/01 06:32:11;;;;;;;;;;;;;;;;;;4613927;28;29102;-71
2022/04/01 06:34:39;;;;;;;;;;;;;;;;;;4631744;28;28121;-71
2022/04/01 06:37:31;;;;;;;;;;;;;;;;;;4619943;28;30114;-71
2022/04/01 06:39:58;;;;;;;;;;;;;;;;;;4629935;28;29081;-71
2022/04/01 06:42:32;;;;;;;;;;;;;;;;;;4616207;28;25095;-71
2022/04/01 06:45:23;;;;;;;;;;;;;;;;;;4618198;28;32134;-70
2022/04/01 06:48:11;;;;;;;;;;;;;;;;;;4609698;28;26104;-67
2022/04/01 06:51:08;;;;;;;;;;;;;;;;;;4617973;28;28068;-66
2022/04/01 06:53:54;;;;;;;;;;;;;;;;;;4614904;28;31076;-69
2022/04/01 06:56:47;;;;;;;;;;;;;;;;;;4605643;28;27061;-71
2022/04/01 06:59:16;;;;;;;;;;;;;;;;;;4630380;28;27057;-68
2022/04/01 07:01:43;;;;;;;;;;;;;;;;;;4613972;28;25075;-69
2022/04/01 07:04:12;;;;;;;;;;;;;;;;;;4616470;28;29081;-70
2022/04/01 07:06:39;;;;;;;;;;;;;;;;;;4700794;22;29073;-70
2022/04/01 07:09:07;;;;;;;;;;;;;;;;;;4630737;28;31075;-69
2022/04/01 07:11:35;;;;;;;;;;;;;;;;;;4629676;28;33115;-69
2022/04/01 07:14:03;;;;;;;;;;;;;;;;;;4628936;28;30080;-70
2022/04/01 07:16:30;;;;;;;;;;;;;;;;;;4631595;28;28143;-70
2022/04/01 07:19:01;;;;;;;;;;;;;;;;;;4626836;28;27419;-69
2022/04/01 07:21:29;;;;;;;;;;;;;;;;;;4626835;28;30060;-70
2022/04/01 07:23:59;;;;;;;;;;;;;;;;;;4629872;28;29075;-68
2022/04/01 07:26:27;;;;;;;;;;;;;;;;;;4631368;28;27078;-68
2022/04/01 07:28:55;;;;;;;;;;;;;;;;;;4630819;28;26073;-69
2022/04/01 07:34:23;;;;;;;;;;;;;;;;;;4623105;28;31114;-70
2022/04/01 07:37:05;;;;;;;;;;;;;;;;;;4623188;28;26051;-69
2022/04/01 07:39:32;;;;;;;;;;;;;;;;;;4621122;28;27120;-68
2022/04/01 07:42:00;;;;;;;;;;;;;;;;;;4612863;28;33095;-68
2022/04/01 07:44:31;;;;;;;;;;;;;;;;;;4630459;28;25926;-68
2022/04/01 07:46:59;;;;;;;;;;;;;;;;;;4629482;28;29085;-68
2022/04/01 07:49:27;;;;;;;;;;;;;;;;;;4628743;28;27095;-69
2022/04/01 07:52:15;;;;;;;;;;;;;;;;;;4633794;28;26080;-68
2022/04/01 07:54:46;;;;;;;;;;;;;;;;;;4634070;28;34154;-71
2022/04/01 07:57:14;;;;;;;;;;;;;;;;;;4637427;28;30074;-68
2022/04/01 07:59:41;;;;;;;;;;;;;;;;;;4640720;28;33071;-70
2022/04/01 08:02:09;;;;;;;;;;;;;;;;;;4636766;28;31055;-69
2022/04/01 08:04:36;;;;;;;;;;;;;;;;;;4642667;28;27063;-70
2022/04/01 08:07:07;;;;;;;;;;;;;;;;;;4642679;28;34145;-70
2022/04/01 08:09:36;;;;;;;;;;;;;;;;;;4641068;28;27061;-68
2022/04/01 08:12:03;;;;;;;;;;;;;;;;;;4641401;28;25061;-70
2022/04/01 08:14:33;;;;;;;;;;;;;;;;;;4644782;28;25083;-69
2022/04/01 08:17:02;;;;;;;;;;;;;;;;;;4643146;28;29160;-68
2022/04/01 08:19:43;;;;;;;;;;;;;;;;;;4639695;28;27053;-69
2022/04/01 08:22:11;;;;;;;;;;;;;;;;;;4635169;28;25131;-69
2022/04/01 08:24:38;;;;;;;;;;;;;;;;;;4638876;28;33091;-69
2022/04/01 08:27:07;;;;;;;;;;;;;;;;;;4634734;28;27066;-70
2022/04/01 08:29:36;;;;;;;;;;;;;;;;;;4626646;28;27075;-69
2022/04/01 08:32:06;;;;;;;;;;;;;;;;;;4625693;28;26057;-70
2022/04/01 08:34:34;;;;;;;;;;;;;;;;;;4627663;28;25089;-69
2022/04/01 08:37:03;;;;;;;;;;;;;;;;;;4628693;28;26080;-70
2022/04/01 08:39:33;;;;;;;;;;;;;;;;;;4627858;28;27099;-68
2022/04/01 08:42:01;;;;;;;;;;;;;;;;;;4631589;28;25055;-69
2022/04/01 08:44:29;;;;;;;;;;;;;;;;;;4635130;28;27161;-69
2022/04/01 08:46:57;;;;;;;;;;;;;;;;;;4633905;28;28106;-70
2022/04/01 08:49:26;;;;;;;;;;;;;;;;;;4638531;28;29071;-68
2022/04/01 08:51:53;;;;;;;;;;;;;;;;;;4634111;28;29069;-70
2022/04/01 08:54:21;;;;;;;;;;;;;;;;;;4637766;28;27074;-69
2022/04/01 08:56:48;;;;;;;;;;;;;;;;;;4635661;28;27078;-70
2022/04/01 08:59:16;;;;;;;;;;;;;;;;;;4641060;28;29088;-69
2022/04/01 09:01:45;;;;;;;;;;;;;;;;;;4643680;28;33101;-70
2022/04/01 09:04:13;;;;;;;;;;;;;;;;;;4643558;28;28131;-69
2022/04/01 09:06:43;;;;;;;;;;;;;;;;;;4643627;28;27928;-70
2022/04/01 09:09:14;;;;;;;;;;;;;;;;;;4647597;28;27076;-69
2022/04/01 09:11:42;;;;;;;;;;;;;;;;;;4643554;28;25075;-69
2022/04/01 09:14:09;;;;;;;;;;;;;;;;;;4643007;28;29108;-69
2022/04/01 09:16:41;;;;;;;;;;;;;;;;;;4643564;28;25072;-70
2022/04/01 09:19:10;;;;;;;;;;;;;;;;;;4649121;28;27078;-69
2022/04/01 09:21:44;;;;;;;;;;;;;;;;;;4647491;28;33057;-70
2022/04/01 09:24:11;;;;;;;;;;;;;;;;;;4646399;28;27066;-70
2022/04/01 09:26:39;;;;;;;;;;;;;;;;;;4647440;28;28118;-70
2022/04/01 09:29:07;;;;;;;;;;;;;;;;;;4643765;28;30083;-69
2022/04/01 09:31:36;;;;;;;;;;;;;;;;;;4646855;28;43149;-69
2022/04/01 09:34:06;;;;;;;;;;;;;;;;;;4644547;28;34060;-70
2022/04/01 09:36:42;;;;;;;;;;;;;;;;;;4646614;28;26065;-70
2022/04/01 09:39:11;;;;;;;;;;;;;;;;;;4646853;28;28136;-69
2022/04/01 09:41:46;;;;;;;;;;;;;;;;;;4645712;28;27108;-69
2022/04/01 09:44:24;;;;;;;;;;;;;;;;;;4640336;28;29071;-68
2022/04/01 09:46:52;;;;;;;;;;;;;;;;;;4635585;28;32102;-67
2022/04/01 09:49:34;;;;;;;;;;;;;;;;;;4634855;28;27053;-69
2022/04/01 09:52:03;;;;;;;;;;;;;;;;;;4637175;28;28096;-70
2022/04/01 09:54:34;;;;;;;;;;;;;;;;;;4636822;28;29041;-69
2022/04/01 09:57:02;;;;;;;;;;;;;;;;;;4639715;28;26081;-69
2022/04/01 09:59:44;;;;;;;;;;;;;;;;;;4641407;28;31060;-69
2022/04/01 10:02:11;;;;;;;;;;;;;;;;;;4640320;28;33088;-70
2022/04/01 10:04:40;;;;;;;;;;;;;;;;;;4643222;28;29060;-70
2022/04/01 10:07:10;;;;;;;;;;;;;;;;;;4641388;28;33152;-69
2022/04/01 10:09:37;;;;;;;;;;;;;;;;;;4646311;28;31139;-68
2022/04/01 10:12:25;;;;;;;;;;;;;;;;;;4644823;28;31114;-68
2022/04/01 10:14:55;;;;;;;;;;;;;;;;;;4650508;28;28074;-70
2022/04/01 10:17:24;;;;;;;;;;;;;;;;;;4647833;28;31117;-70
2022/04/01 10:19:51;;;;;;;;;;;;;;;;;;4652254;28;27054;-69
2022/04/01 10:22:19;;;;;;;;;;;;;;;;;;4649655;28;26129;-70
2022/04/01 10:24:47;;;;;;;;;;;;;;;;;;4649608;28;32064;-68
2022/04/01 10:27:15;;;;;;;;;;;;;;;;;;4650719;28;33083;-70
2022/04/01 10:29:45;;;;;;;;;;;;;;;;;;4654189;28;31154;-69
2022/04/01 10:32:13;;;;;;;;;;;;;;;;;;4651320;28;30092;-70
2022/04/01 10:34:41;;;;;;;;;;;;;;;;;;4628440;28;31059;-68
2022/04/01 10:37:10;;;;;;;;;;;;;;;;;;4633022;28;26055;-70
2022/04/01 10:39:37;;;;;;;;;;;;;;;;;;4633068;28;30072;-67
2022/04/01 10:42:06;;;;;;;;;;;;;;;;;;4639965;28;26062;-68
2022/04/01 10:44:34;;;;;;;;;;;;;;;;;;4641060;28;26062;-69
2022/04/01 10:47:17;;;;;;;;;;;;;;;;;;4635271;28;28103;-69
2022/04/01 10:52:44;;;;;;;;;;;;;;;;;;4629787;28;31055;-69
2022/04/01 10:55:12;;;;;;;;;;;;;;;;;;4644459;28;31060;-68
2022/04/01 10:57:40;;;;;;;;;;;;;;;;;;4640755;28;29106;-68
2022/04/01 11:00:14;;;;;;;;;;;;;;;;;;4642742;28;31139;-68
2022/04/01 11:02:42;;;;;;;;;;;;;;;;;;4638028;28;29128;-68
2022/04/01 11:05:11;;;;;;;;;;;;;;;;;;4639249;28;33115;-69
2022/04/01 11:07:38;;;;;;;;;;;;;;;;;;4642415;28;25082;-68
2022/04/01 11:10:06;;;;;;;;;;;;;;;;;;4640134;28;33088;-70
2022/04/01 11:12:37;;;;;;;;;;;;;;;;;;4651970;28;44152;-69
2022/04/01 11:15:19;;;;;;;;;;;;;;;;;;4644093;28;44140;-68
2022/04/01 11:17:49;;;;;;;;;;;;;;;;;;4644163;28;27117;-70
2022/04/01 11:20:18;;;;;;;;;;;;;;;;;;4638945;28;26104;-69
2022/04/01 11:22:48;;;;;;;;;;;;;;;;;;4637913;28;33082;-70
2022/04/01 11:25:16;;;;;;;;;;;;;;;;;;4643586;28;33067;-68
2022/04/01 11:27:43;;;;;;;;;;;;;;;;;;4644671;28;27083;-69
2022/04/01 11:30:14;;;;;;;;;;;;;;;;;;4640788;28;32108;-70
2022/04/01 11:32:42;;;;;;;;;;;;;;;;;;4645641;28;31158;-69
2022/04/01 11:35:10;;;;;;;;;;;;;;;;;;4644488;28;33073;-71
2022/04/01 11:37:37;;;;;;;;;;;;;;;;;;4645830;28;32049;-68
2022/04/01 11:40:04;;;;;;;;;;;;;;;;;;4647713;28;32043;-70
2022/04/01 11:42:32;;;;;;;;;;;;;;;;;;4650852;28;29073;-68
2022/04/01 11:44:59;;;;;;;;;;;;;;;;;;4643323;28;27133;-71
2022/04/01 11:47:35;;;;;;;;;;;;;;;;;;4556908;28;26511;-69
2022/04/01 11:50:07;;;;;;;;;;;;;;;;;;4650370;28;29078;-69
2022/04/01 11:52:48;;;;;;;;;;;;;;;;;;4650456;28;30070;-70
2022/04/01 11:55:16;;;;;;;;;;;;;;;;;;4650499;28;27084;-70
2022/04/01 11:57:43;;;;;;;;;;;;;;;;;;4652530;28;27149;-69
2022/04/01 12:00:13;;;;;;;;;;;;;;;;;;4655855;28;26063;-70
2022/04/01 12:02:41;;;;;;;;;;;;;;;;;;4652148;28;32159;-69
2022/04/01 12:05:08;;;;;;;;;;;;;;;;;;4651663;28;26154;-69
2022/04/01 12:10:36;;;;;;;;;;;;;;;;;;4646169;28;28063;-70
2022/04/01 12:13:03;;;;;;;;;;;;;;;;;;4653199;28;31072;-70
2022/04/01 12:15:31;;;;;;;;;;;;;;;;;;4649025;28;29120;-70
2022/04/01 12:18:01;;;;;;;;;;;;;;;;;;4638334;28;32146;-69
2022/04/01 12:20:28;;;;;;;;;;;;;;;;;;4632202;28;26081;-70
2022/04/01 12:22:58;;;;;;;;;;;;;;;;;;4626986;28;29062;-69
2022/04/01 12:25:34;;;;;;;;;;;;;;;;;;4630904;28;26164;-69
2022/04/01 12:28:04;;;;;;;;;;;;;;;;;;4633644;28;25077;-69
2022/04/01 12:30:32;;;;;;;;;;;;;;;;;;4640486;28;28035;-69
2022/04/01 12:32:59;;;;;;;;;;;;;;;;;;4603110;28;32124;-70
2022/04/01 12:35:27;;;;;;;;;;;;;;;;;;4608837;28;29094;-69
2022/04/01 12:38:08;;;;;;;;;;;;;;;;;;4642273;28;33087;-69
2022/04/01 12:40:36;;;;;;;;;;;;;;;;;;4638928;28;27893;-69
2022/04/01 12:43:03;;;;;;;;;;;;;;;;;;4635669;28;31922;-69
2022/04/01 12:45:36;;;;;;;;;;;;;;;;;;4632477;28;27966;-70
2022/04/01 12:48:17;;;;;;;;;;;;;;;;;;4637957;28;28073;-70
2022/04/01 12:50:44;;;;;;;;;;;;;;;;;;4637824;28;26068;-69
2022/04/01 12:53:13;;;;;;;;;;;;;;;;;;4632449;28;30120;-71
2022/04/01 12:55:40;;;;;;;;;;;;;;;;;;4643434;28;33141;-71
2022/04/01 12:58:14;;;;;;;;;;;;;;;;;;4640745;28;29134;-71
2022/04/01 13:00:42;;;;;;;;;;;;;;;;;;4643532;28;26141;-72
2022/04/01 13:03:11;;;;;;;;;;;;;;;;;;4641381;28;32147;-71
2022/04/01 13:05:38;;;;;;;;;;;;;;;;;;4642418;28;33085;-71
2022/04/01 13:08:06;;;;;;;;;;;;;;;;;;4637150;28;30064;-71
2022/04/01 13:10:41;;;;;;;;;;;;;;;;;;4637105;28;30099;-70
2022/04/01 13:13:11;;;;;;;;;;;;;;;;;;4633218;28;33054;-71
2022/04/01 13:15:44;;;;;;;;;;;;;;;;;;4633064;28;31082;-71
2022/04/01 13:18:13;;;;;;;;;;;;;;;;;;4634514;28;26073;-71
2022/04/01 13:20:49;;;;;;;;;;;;;;;;;;4634379;28;28061;-70
2022/04/01 13:23:17;;;;;;;;;;;;;;;;;;4636470;28;26826;-70
2022/04/01 13:25:44;;;;;;;;;;;;;;;;;;4637546;28;31073;-71
2022/04/01 13:28:15;;;;;;;;;;;;;;;;;;4639192;28;25060;-70
2022/04/01 13:30:44;;;;;;;;;;;;;;;;;;4632318;28;31092;-69
2022/04/01 13:33:25;;;;;;;;;;;;;;;;;;4571991;28;25080;-71
2022/04/01 13:36:04;;;;;;;;;;;;;;;;;;4597375;28;32061;-69
2022/04/01 13:38:35;;;;;;;;;;;;;;;;;;4645612;28;27059;-69
2022/04/01 13:41:05;;;;;;;;;;;;;;;;;;4639442;28;32027;-69
2022/04/01 13:43:35;;;;;;;;;;;;;;;;;;4635645;28;25070;-71
2022/04/01 13:46:02;;;;;;;;;;;;;;;;;;4632832;28;27061;-72
2022/04/01 13:48:31;;;;;;;;;;;;;;;;;;4639751;28;29073;-71
2022/04/01 13:50:59;;;;;;;;;;;;;;;;;;4631203;28;28098;-70
2022/04/01 13:53:29;;;;;;;;;;;;;;;;;;4640718;28;30065;-72
2022/04/01 13:55:59;;;;;;;;;;;;;;;;;;4631595;28;28128;-71
2022/04/01 13:58:27;;;;;;;;;;;;;;;;;;4630230;28;28071;-71
2022/04/01 14:00:55;;;;;;;;;;;;;;;;;;4634428;28;28087;-70
2022/04/01 14:03:24;;;;;;;;;;;;;;;;;;4636197;28;29093;-70
2022/04/01 14:05:55;;;;;;;;;;;;;;;;;;4633607;28;29057;-71
2022/04/01 14:08:36;;;;;;;;;;;;;;;;;;4634035;28;30058;-70
2022/04/01 14:11:04;;;;;;;;;;;;;;;;;;4637649;28;27083;-70
2022/04/01 14:13:32;;;;;;;;;;;;;;;;;;4626260;28;29145;-70
2022/04/01 14:16:20;;;;;;;;;;;;;;;;;;4634397;28;27062;-71
2022/04/01 14:18:49;;;;;;;;;;;;;;;;;;4635520;28;26097;-70
2022/04/01 14:21:31;;;;;;;;;;;;;;;;;;4636263;28;32082;-70
2022/04/01 14:23:58;;;;;;;;;;;;;;;;;;4633574;28;26085;-71
2022/04/01 14:26:33;;;;;;;;;;;;;;;;;;4633880;28;31105;-71
2022/04/01 14:32:01;;;;;;;;;;;;;;;;;;4636494;28;27930;-71
2022/04/01 14:34:28;;;;;;;;;;;;;;;;;;4639183;28;28119;-72
2022/04/01 14:36:59;;;;;;;;;;;;;;;;;;4637169;28;25084;-72
2022/04/01 14:39:27;;;;;;;;;;;;;;;;;;4639084;28;37084;-72
2022/04/01 14:41:54;;;;;;;;;;;;;;;;;;4639560;28;28123;-72
2022/04/01 14:44:23;;;;;;;;;;;;;;;;;;4639437;28;26065;-72
2022/04/01 14:46:52;;;;;;;;;;;;;;;;;;4634688;28;27064;-69
2022/04/01 14:49:19;;;;;;;;;;;;;;;;;;4637823;28;28105;-72
2022/04/01 14:51:49;;;;;;;;;;;;;;;;;;4633435;28;28063;-71
2022/04/01 14:54:17;;;;;;;;;;;;;;;;;;4632033;28;28073;-72
2022/04/01 14:56:44;;;;;;;;;;;;;;;;;;4634606;28;31969;-71
2022/04/01 14:59:12;;;;;;;;;;;;;;;;;;4631441;28;26145;-70
2022/04/01 15:01:45;;;;;;;;;;;;;;;;;;4632883;28;32081;-71
2022/04/01 15:04:14;;;;;;;;;;;;;;;;;;4637967;28;34060;-70
2022/04/01 15:06:44;;;;;;;;;;;;;;;;;;4622544;28;33097;-72
2022/04/01 15:09:26;;;;;;;;;;;;;;;;;;4632352;28;27074;-72
2022/04/01 15:11:53;;;;;;;;;;;;;;;;;;4631190;28;27080;-72
2022/04/01 15:14:22;;;;;;;;;;;;;;;;;;4631038;28;27065;-71
2022/04/01 15:16:50;;;;;;;;;;;;;;;;;;4634911;28;28103;-71
2022/04/01 15:19:17;;;;;;;;;;;;;;;;;;4633600;28;26072;-71
2022/04/01 15:21:52;;;;;;;;;;;;;;;;;;4633350;28;29056;-71
2022/04/01 15:24:20;;;;;;;;;;;;;;;;;;4632723;28;37071;-69
2022/04/01 15:27:02;;;;;;;;;;;;;;;;;;4632640;28;31156;-70
2022/04/01 15:29:29;;;;;;;;;;;;;;;;;;4635590;28;30064;-69
2022/04/01 15:31:57;;;;;;;;;;;;;;;;;;4636899;28;31069;-70
2022/04/01 15:34:31;;;;;;;;;;;;;;;;;;4629263;28;29065;-71
2022/04/01 15:36:59;;;;;;;;;;;;;;;;;;4603154;28;29560;-70
2022/04/01 15:39:34;;;;;;;;;;;;;;;;;;4629187;28;33163;-71
2022/04/01 15:42:04;;;;;;;;;;;;;;;;;;4623048;28;29062;-72
2022/04/01 15:44:34;;;;;;;;;;;;;;;;;;4626715;28;32047;-73
2022/04/01 15:47:02;;;;;;;;;;;;;;;;;;4635077;28;28095;-70
2022/04/01 15:49:31;;;;;;;;;;;;;;;;;;4632321;28;27948;-72
2022/04/01 15:52:04;;;;;;;;;;;;;;;;;;4606300;28;27147;-70
2022/04/01 15:54:34;;;;;;;;;;;;;;;;;;4579241;28;30097;-72
2022/04/01 15:57:03;;;;;;;;;;;;;;;;;;4608118;28;26060;-72
2022/04/01 16:01:41;;;;;;;;;;;;;;;;;;4663184;27;27077;-71
2022/04/01 16:04:10;;;;;;;;;;;;;;;;;;4672378;28;31035;-72
2022/04/01 16:06:37;;;;;;;;;;;;;;;;;;4570084;28;26054;-73
2022/04/01 16:09:05;;;;;;;;;;;;;;;;;;4588291;28;27388;-70
2022/04/01 16:11:32;;;;;;;;;;;;;;;;;;4581467;28;27088;-73
2022/04/01 16:14:07;;;;;;;;;;;;;;;;;;4583469;28;26136;-70
2022/04/01 16:16:54;;;;;;;;;;;;;;;;;;4606406;28;26090;-72
2022/04/01 16:19:22;;;;;;;;;;;;;;;;;;4600674;28;27080;-71
2022/04/01 16:21:50;;;;;;;;;;;;;;;;;;4569749;28;27079;-72
2022/04/01 16:24:18;;;;;;;;;;;;;;;;;;4596289;28;32115;-73
2022/04/01 16:26:45;;;;;;;;;;;;;;;;;;4615761;28;28074;-74
2022/04/01 16:29:12;;;;;;;;;;;;;;;;;;4584068;28;29144;-70
2022/04/01 16:31:40;;;;;;;;;;;;;;;;;;4555420;28;31073;-71
2022/04/01 16:34:07;;;;;;;;;;;;;;;;;;4631998;28;30123;-72
2022/04/01 16:36:35;;;;;;;;;;;;;;;;;;4628984;28;32099;-72
2022/04/01 16:39:02;;;;;;;;;;;;;;;;;;4629554;28;31139;-72
2022/04/01 16:41:30;;;;;;;;;;;;;;;;;;4630892;28;27086;-72
2022/04/01 16:43:57;;;;;;;;;;;;;;;;;;4631184;28;26080;-71
2022/04/01 16:46:25;;;;;;;;;;;;;;;;;;4642297;28;27136;-72
2022/04/01 16:48:54;;;;;;;;;;;;;;;;;;4650662;28;30058;-70
2022/04/01 16:51:22;;;;;;;;;;;;;;;;;;4650031;28;26057;-73
2022/04/01 16:53:50;;;;;;;;;;;;;;;;;;4649282;28;30152;-71
2022/04/01 16:56:19;;;;;;;;;;;;;;;;;;4648228;28;33086;-70
2022/04/01 16:58:48;;;;;;;;;;;;;;;;;;4643662;28;32149;-71
2022/04/01 17:01:17;;;;;;;;;;;;;;;;;;4644993;28;26112;-71
2022/04/01 17:03:45;;;;;;;;;;;;;;;;;;4647794;28;25086;-71
2022/04/01 17:14:31;;;;;;;;;;;;;;;;;;4591722;28;26091;-73
2022/04/01 17:17:04;;;;;;;;;;;;;;;;;;4564470;28;26124;-71
2022/04/01 17:19:32;;;;;;;;;;;;;;;;;;4603535;28;25073;-70
2022/04/01 17:22:04;;;;;;;;;;;;;;;;;;4601825;28;27967;-73
2022/04/01 17:24:34;;;;;;;;;;;;;;;;;;4633555;28;28071;-72
2022/04/01 17:27:02;;;;;;;;;;;;;;;;;;4629348;28;25105;-71
2022/04/01 17:29:30;;;;;;;;;;;;;;;;;;4656923;28;27056;-71
2022/04/01 17:31:58;;;;;;;;;;;;;;;;;;4658341;28;33070;-71
2022/04/01 17:34:25;;;;;;;;;;;;;;;;;;4655473;28;26133;-71
2022/04/01 17:36:53;;;;;;;;;;;;;;;;;;4653115;28;30074;-73
2022/04/01 17:39:20;;;;;;;;;;;;;;;;;;4646073;28;27087;-72